Time;durP1;ratioP1;P1;durP2;ratioP2;P2;SDS_P1;SDS_P2;PMS_P1;PMS_P2;Temp;Humidity;BMP_temperature;BMP_pressure;BME280_temperature;BME280_humidity;BME280_pressure;Samples;Min_cycle;Max_cycle;Signal;HPM_P1;HPM_P2
2022/08/27 00:00:27;;;;;;;0.45;0.45;;;16.50;99.90;;;;;;6146388;23;20021;-79
2022/08/27 00:02:54;;;;;;;0.73;0.52;;;16.50;99.90;;;;;;6147282;23;20056;-78
2022/08/27 00:05:21;;;;;;;0.82;0.60;;;16.50;99.90;;;;;;6147262;23;20032;-78
2022/08/27 00:07:48;;;;;;;0.80;0.65;;;16.40;99.90;;;;;;6147870;23;20032;-78
2022/08/27 00:10:21;;;;;;;0.50;0.50;;;16.40;99.90;;;;;;6123803;23;20525;-78
2022/08/27 00:12:48;;;;;;;0.55;0.43;;;16.40;99.90;;;;;;6174472;23;20053;-78
2022/08/27 00:15:15;;;;;;;0.40;0.35;;;16.30;99.90;;;;;;6124017;23;20025;-78
2022/08/27 00:17:44;;;;;;;0.93;0.55;;;16.30;99.90;;;;;;6124323;23;20025;-78
2022/08/27 00:20:12;;;;;;;0.70;0.50;;;16.30;99.90;;;;;;6148216;23;20025;-78
2022/08/27 00:22:39;;;;;;;1.13;0.70;;;16.30;99.90;;;;;;6123453;23;20027;-80
2022/08/27 00:25:06;;;;;;;0.73;0.60;;;16.30;99.90;;;;;;6121828;23;20060;-81
2022/08/27 00:27:33;;;;;;;0.57;0.50;;;16.30;99.90;;;;;;6146417;23;20028;-80
2022/08/27 00:30:00;;;;;;;0.52;0.52;;;16.20;99.90;;;;;;6123719;23;20348;-80
2022/08/27 00:32:27;;;;;;;0.90;0.70;;;16.20;99.90;;;;;;6146945;23;20096;-79
2022/08/27 00:34:54;;;;;;;0.70;0.63;;;16.20;99.90;;;;;;6099495;23;20115;-79
2022/08/27 00:37:21;;;;;;;0.60;0.50;;;16.10;99.90;;;;;;6122562;23;20021;-78
2022/08/27 00:39:47;;;;;;;0.80;0.57;;;16.10;99.90;;;;;;6123510;23;20080;-77
2022/08/27 00:42:14;;;;;;;1.17;0.80;;;16.10;99.90;;;;;;6147096;23;20025;-78
2022/08/27 00:44:41;;;;;;;0.93;0.70;;;16.00;99.90;;;;;;6099793;23;20028;-78
2022/08/27 00:47:14;;;;;;;0.60;0.60;;;16.00;99.90;;;;;;6122435;23;20025;-79
2022/08/27 00:49:46;;;;;;;0.93;0.63;;;16.00;99.90;;;;;;6124388;23;20025;-79
2022/08/27 00:52:21;;;;;;;0.80;0.68;;;16.00;99.90;;;;;;6099964;23;20021;-78
2022/08/27 00:54:52;;;;;;;0.55;0.50;;;16.00;99.90;;;;;;6173569;23;20028;-77
2022/08/27 00:57:19;;;;;;;0.50;0.50;;;16.00;99.90;;;;;;6148429;23;20533;-77
2022/08/27 00:59:46;;;;;;;1.00;0.60;;;16.00;99.90;;;;;;6124110;23;20025;-78
2022/08/27 01:02:19;;;;;;;0.73;0.55;;;15.90;99.90;;;;;;6122653;23;20028;-78
2022/08/27 01:05:10;;;;;;;1.13;0.85;;;15.90;99.90;;;;;;6167002;23;20032;-78
2022/08/27 01:07:39;;;;;;;1.05;0.75;;;15.90;99.90;;;;;;6171744;23;20028;-79
2022/08/27 01:10:09;;;;;;;0.80;0.63;;;15.90;99.90;;;;;;6147123;23;20025;-79
2022/08/27 01:12:36;;;;;;;0.80;0.60;;;15.90;99.90;;;;;;6171757;23;20049;-78
2022/08/27 01:15:05;;;;;;;1.27;0.70;;;15.80;99.90;;;;;;6172188;23;20076;-80
2022/08/27 01:17:33;;;;;;;0.63;0.50;;;15.80;99.90;;;;;;6171422;23;20056;-79
2022/08/27 01:20:03;;;;;;;0.47;0.47;;;15.80;99.90;;;;;;6174040;23;20029;-80
2022/08/27 01:22:38;;;;;;;0.82;0.60;;;15.80;99.90;;;;;;6171819;23;20725;-80
2022/08/27 01:25:08;;;;;;;0.70;0.70;;;15.70;99.90;;;;;;6175458;23;20029;-79
2022/08/27 01:27:35;;;;;;;0.77;0.60;;;15.70;99.90;;;;;;6149295;23;20044;-79
2022/08/27 01:30:03;;;;;;;0.57;0.47;;;15.70;99.90;;;;;;6174767;23;20025;-79
2022/08/27 01:37:48;;;;;;;0.73;0.60;;;15.60;99.90;;;;;;6132687;23;20049;-86
2022/08/27 01:40:18;;;;;;;0.60;0.57;;;15.50;99.90;;;;;;6132434;23;20021;-87
2022/08/27 01:42:48;;;;;;;1.13;0.60;;;15.50;99.90;;;;;;6132841;23;20403;-87
2022/08/27 01:45:27;;;;;;;1.10;0.70;;;15.50;99.90;;;;;;6134106;23;20520;-87
2022/08/27 01:47:54;;;;;;;1.38;0.80;;;15.40;99.90;;;;;;6133517;23;20474;-89
2022/08/27 01:50:27;;;;;;;0.77;0.70;;;15.40;99.90;;;;;;6130822;23;20503;-87
2022/08/27 01:52:55;;;;;;;0.82;0.63;;;15.50;99.90;;;;;;6133017;23;20040;-87
2022/08/27 01:55:23;;;;;;;0.93;0.70;;;15.50;99.90;;;;;;6131398;23;20032;-87
2022/08/27 01:57:51;;;;;;;0.60;0.60;;;15.50;99.90;;;;;;6133577;23;20044;-87
2022/08/27 02:00:24;;;;;;;0.75;0.75;;;15.40;99.90;;;;;;6138343;23;20072;-89
2022/08/27 02:02:51;;;;;;;0.50;0.50;;;15.40;99.90;;;;;;6137338;23;20025;-89
2022/08/27 02:05:18;;;;;;;1.25;0.85;;;15.30;99.90;;;;;;6133275;23;20017;-88
2022/08/27 02:07:45;;;;;;;1.23;0.93;;;15.30;99.90;;;;;;6134062;23;20021;-89
2022/08/27 02:10:14;;;;;;;2.35;0.60;;;15.30;99.90;;;;;;6132870;23;20120;-90
2022/08/27 02:12:41;;;;;;;1.20;0.70;;;15.20;99.90;;;;;;6156523;23;20453;-90
2022/08/27 02:15:09;;;;;;;1.00;0.90;;;15.20;99.90;;;;;;6133019;23;20027;-90
2022/08/27 02:17:37;;;;;;;1.17;0.85;;;15.10;99.90;;;;;;6133001;23;20075;-88
2022/08/27 02:20:05;;;;;;;0.70;0.47;;;15.00;99.90;;;;;;6133540;23;20025;-90
2022/08/27 02:22:32;;;;;;;0.75;0.60;;;15.10;99.90;;;;;;6132080;23;20032;-87
2022/08/27 02:24:59;;;;;;;0.75;0.63;;;15.00;99.90;;;;;;6132455;23;20486;-88
2022/08/27 02:27:26;;;;;;;1.38;0.82;;;15.00;99.90;;;;;;6131316;23;20027;-90
2022/08/27 02:29:54;;;;;;;1.27;0.70;;;14.90;99.90;;;;;;6133520;23;20024;-88
2022/08/27 02:32:21;;;;;;;1.00;0.70;;;14.90;99.90;;;;;;6135190;23;20033;-88
2022/08/27 02:34:58;;;;;;;0.98;0.80;;;14.90;99.90;;;;;;6168002;23;20024;-89
2022/08/27 02:37:25;;;;;;;0.57;0.57;;;14.90;99.90;;;;;;6167104;23;20023;-87
2022/08/27 02:39:52;;;;;;;0.60;0.60;;;14.90;99.90;;;;;;6168758;23;20058;-87
2022/08/27 02:42:19;;;;;;;0.85;0.65;;;14.90;99.90;;;;;;6166628;23;20028;-87
2022/08/27 02:44:47;;;;;;;1.00;0.68;;;14.90;99.90;;;;;;6167423;23;20020;-88
2022/08/27 02:47:15;;;;;;;0.98;0.80;;;15.00;99.90;;;;;;6167392;23;20078;-87
2022/08/27 02:49:43;;;;;;;0.93;0.80;;;14.90;99.90;;;;;;6166465;23;20016;-86
2022/08/27 02:52:10;;;;;;;0.80;0.70;;;14.90;99.90;;;;;;6165760;23;20024;-86
2022/08/27 02:54:37;;;;;;;0.90;0.50;;;14.90;99.90;;;;;;6165537;23;20020;-86
2022/08/27 02:57:08;;;;;;;0.65;0.57;;;14.90;99.90;;;;;;6170552;23;20050;-87
2022/08/27 02:59:35;;;;;;;1.55;0.73;;;14.90;99.90;;;;;;6167432;23;20402;-86
2022/08/27 03:02:02;;;;;;;0.65;0.47;;;14.90;99.90;;;;;;6169426;23;20020;-87
2022/08/27 03:04:29;;;;;;;1.20;0.63;;;14.90;99.90;;;;;;6171874;23;20307;-87
2022/08/27 03:06:56;;;;;;;0.80;0.57;;;14.90;99.90;;;;;;6169380;23;20028;-88
2022/08/27 03:09:23;;;;;;;1.55;0.80;;;14.80;99.90;;;;;;6168704;23;20024;-91
2022/08/27 03:11:50;;;;;;;1.35;0.60;;;14.80;99.90;;;;;;6169723;23;20020;-88
2022/08/27 03:14:17;;;;;;;1.35;0.80;;;14.90;99.90;;;;;;6168800;23;20019;-89
2022/08/27 03:16:44;;;;;;;1.00;0.80;;;14.90;99.90;;;;;;6194833;23;20103;-88
2022/08/27 03:19:11;;;;;;;0.65;0.52;;;15.00;99.90;;;;;;6169227;23;20023;-87
2022/08/27 03:21:38;;;;;;;1.25;0.70;;;15.00;99.90;;;;;;6166980;23;20047;-87
2022/08/27 03:24:05;;;;;;;1.23;0.90;;;15.00;99.90;;;;;;6192516;23;20439;-89
2022/08/27 03:26:38;;;;;;;0.93;0.80;;;15.10;99.90;;;;;;6174924;23;20047;-90
2022/08/27 03:29:06;;;;;;;0.90;0.73;;;15.10;99.90;;;;;;6172018;23;20015;-89
2022/08/27 03:31:33;;;;;;;0.73;0.65;;;15.10;99.90;;;;;;6172672;23;20020;-88
2022/08/27 03:34:05;;;;;;;1.00;0.70;;;15.00;99.90;;;;;;6169945;23;20047;-89
2022/08/27 03:36:32;;;;;;;0.80;0.68;;;15.00;99.90;;;;;;6171549;23;20030;-86
2022/08/27 03:38:59;;;;;;;1.15;0.80;;;15.00;99.90;;;;;;6167838;23;20051;-86
2022/08/27 03:41:26;;;;;;;1.75;0.90;;;15.00;99.90;;;;;;6190908;23;20024;-86
2022/08/27 03:44:13;;;;;;;1.23;0.70;;;15.00;99.90;;;;;;6178544;23;20020;-85
2022/08/27 03:46:48;;;;;;;0.60;0.52;;;14.90;99.90;;;;;;6169159;23;20076;-86
2022/08/27 03:49:16;;;;;;;0.73;0.60;;;14.90;99.90;;;;;;6165257;23;20016;-86
2022/08/27 03:51:47;;;;;;;0.98;0.68;;;14.90;99.90;;;;;;6167598;23;20454;-86
2022/08/27 03:54:14;;;;;;;0.85;0.80;;;14.90;99.90;;;;;;6165055;23;20012;-86
2022/08/27 03:56:42;;;;;;;1.10;0.52;;;14.90;99.90;;;;;;6167309;23;20024;-86
2022/08/27 03:59:09;;;;;;;0.82;0.70;;;14.80;99.90;;;;;;6169577;23;20016;-85
2022/08/27 04:01:36;;;;;;;0.80;0.65;;;14.80;99.90;;;;;;6168364;23;20026;-87
2022/08/27 04:04:03;;;;;;;1.02;0.70;;;14.70;99.90;;;;;;6170032;23;20016;-88
2022/08/27 04:06:30;;;;;;;0.60;0.57;;;14.70;99.90;;;;;;6165636;23;20089;-87
2022/08/27 04:08:57;;;;;;;1.00;0.60;;;14.70;99.90;;;;;;6167883;23;20013;-88
2022/08/27 04:11:24;;;;;;;0.60;0.60;;;14.80;99.90;;;;;;6165788;23;20024;-89
2022/08/27 04:13:51;;;;;;;0.85;0.70;;;14.70;99.90;;;;;;6166769;23;20440;-90
2022/08/27 04:16:18;;;;;;;0.95;0.75;;;14.80;99.90;;;;;;6166231;23;20035;-90
2022/08/27 04:18:46;;;;;;;0.93;0.60;;;14.80;99.90;;;;;;6166169;23;20035;-87
2022/08/27 04:21:14;;;;;;;0.98;0.65;;;14.80;99.90;;;;;;6165308;23;20024;-90
2022/08/27 04:23:41;;;;;;;0.52;0.52;;;14.80;99.90;;;;;;6166936;23;20016;-87
2022/08/27 04:26:09;;;;;;;0.50;0.50;;;14.70;99.90;;;;;;6166142;23;20020;-89
2022/08/27 04:28:37;;;;;;;1.08;0.70;;;14.70;99.90;;;;;;6167671;23;20012;-88
2022/08/27 04:31:05;;;;;;;0.52;0.50;;;14.70;99.90;;;;;;6164981;23;20024;-86
2022/08/27 04:33:40;;;;;;;0.93;0.65;;;14.60;99.90;;;;;;6169621;23;20443;-88
2022/08/27 04:36:16;;;;;;;0.70;0.60;;;14.60;99.90;;;;;;6170837;23;20016;-88
2022/08/27 04:38:43;;;;;;;1.55;0.73;;;14.60;99.90;;;;;;6166352;23;20395;-87
2022/08/27 04:41:20;;;;;;;1.05;0.60;;;14.60;99.90;;;;;;6164113;23;20020;-86
2022/08/27 04:43:52;;;;;;;0.73;0.60;;;14.60;99.90;;;;;;6168499;23;20074;-86
2022/08/27 04:46:21;;;;;;;0.60;0.60;;;14.60;99.90;;;;;;6164978;23;20107;-86
2022/08/27 04:48:48;;;;;;;0.43;0.40;;;14.60;99.90;;;;;;6164953;23;20020;-89
2022/08/27 04:51:15;;;;;;;0.50;0.50;;;14.70;99.90;;;;;;6163406;23;20027;-88
2022/08/27 04:53:44;;;;;;;1.58;0.77;;;14.70;99.90;;;;;;6165776;23;20012;-86
2022/08/27 04:56:13;;;;;;;0.75;0.57;;;14.70;99.90;;;;;;6163099;23;20051;-87
2022/08/27 04:58:40;;;;;;;1.30;0.60;;;14.60;99.90;;;;;;6165279;23;20016;-86
2022/08/27 05:01:07;;;;;;;0.60;0.50;;;14.60;99.90;;;;;;6165324;23;20440;-87
2022/08/27 05:03:34;;;;;;;0.90;0.52;;;14.60;99.90;;;;;;6164460;23;20044;-88
2022/08/27 05:06:03;;;;;;;1.98;0.57;;;14.60;99.90;;;;;;6166446;23;20127;-88
2022/08/27 05:08:30;;;;;;;1.08;0.70;;;14.60;99.90;;;;;;6168842;23;20072;-87
2022/08/27 05:10:59;;;;;;;0.75;0.68;;;14.70;99.90;;;;;;6168043;23;20024;-87
2022/08/27 05:13:26;;;;;;;0.68;0.60;;;14.70;99.90;;;;;;6169002;23;20434;-87
2022/08/27 05:15:58;;;;;;;1.27;0.70;;;14.80;99.90;;;;;;6168683;23;20521;-86
2022/08/27 05:18:25;;;;;;;0.63;0.60;;;14.80;99.90;;;;;;6172149;23;20024;-86
2022/08/27 05:20:52;;;;;;;1.48;0.80;;;14.80;99.90;;;;;;6172170;23;20251;-87
2022/08/27 05:23:19;;;;;;;1.20;0.82;;;14.80;99.90;;;;;;6171476;23;20012;-88
2022/08/27 05:25:50;;;;;;;1.33;0.60;;;14.90;99.90;;;;;;6173761;23;20080;-87
2022/08/27 05:28:20;;;;;;;1.13;0.80;;;14.90;99.90;;;;;;6171063;23;20028;-88
2022/08/27 05:30:55;;;;;;;0.98;0.75;;;15.00;99.90;;;;;;6172512;23;20115;-86
2022/08/27 05:33:23;;;;;;;0.68;0.60;;;15.00;99.90;;;;;;6166032;23;20028;-87
2022/08/27 05:35:52;;;;;;;0.50;0.43;;;15.00;99.90;;;;;;6165007;23;20031;-87
2022/08/27 05:38:19;;;;;;;0.60;0.50;;;15.00;99.90;;;;;;6165699;23;20024;-89
2022/08/27 05:40:49;;;;;;;0.90;0.68;;;15.10;99.90;;;;;;6168615;23;20016;-87
2022/08/27 05:43:17;;;;;;;0.63;0.47;;;15.10;99.90;;;;;;6168835;23;20020;-89
2022/08/27 05:45:46;;;;;;;0.82;0.65;;;15.20;99.90;;;;;;6165920;23;20384;-87
2022/08/27 05:48:16;;;;;;;0.80;0.50;;;15.20;99.90;;;;;;6167165;23;20024;-88
2022/08/27 05:50:43;;;;;;;0.82;0.65;;;15.30;99.90;;;;;;6167180;23;20024;-87
2022/08/27 05:53:11;;;;;;;0.68;0.50;;;15.30;99.90;;;;;;6166132;23;20477;-86
2022/08/27 05:55:40;;;;;;;0.38;0.38;;;15.40;99.90;;;;;;6164814;23;20393;-87
2022/08/27 05:58:07;;;;;;;0.60;0.43;;;15.50;99.90;;;;;;6165021;23;20347;-87
2022/08/27 06:03:28;;;;;;;1.00;0.40;;;15.60;99.90;;;;;;6198107;23;20078;-88
2022/08/27 06:06:04;;;;;;;1.42;0.70;;;15.70;99.90;;;;;;6162912;23;20023;-87
2022/08/27 06:08:31;;;;;;;0.55;0.45;;;15.80;99.90;;;;;;6161920;23;20024;-88
2022/08/27 06:11:02;;;;;;;0.40;0.40;;;15.90;99.90;;;;;;6163726;23;20116;-88
2022/08/27 06:13:30;;;;;;;0.70;0.50;;;16.00;99.90;;;;;;6162715;23;20017;-87
2022/08/27 06:16:04;;;;;;;1.20;0.70;;;16.10;99.90;;;;;;6162365;23;20030;-87
2022/08/27 06:18:33;;;;;;;0.60;0.60;;;16.20;99.90;;;;;;6166327;23;20012;-87
2022/08/27 06:21:00;;;;;;;0.90;0.80;;;16.20;99.90;;;;;;6165431;23;20020;-88
2022/08/27 06:23:28;;;;;;;0.80;0.40;;;16.30;99.90;;;;;;6164893;23;20020;-86
2022/08/27 06:25:55;;;;;;;1.85;0.77;;;16.30;99.90;;;;;;6165689;23;20016;-89
2022/08/27 06:28:24;;;;;;;1.08;0.75;;;16.40;99.90;;;;;;6164378;23;20340;-89
2022/08/27 06:30:51;;;;;;;0.82;0.60;;;16.40;99.90;;;;;;6162722;23;20083;-89
2022/08/27 06:33:19;;;;;;;1.00;0.60;;;16.40;99.90;;;;;;6187277;23;20605;-90
2022/08/27 06:35:47;;;;;;;0.43;0.43;;;16.50;99.90;;;;;;6162645;23;20015;-87
2022/08/27 06:38:14;;;;;;;0.65;0.40;;;16.50;99.90;;;;;;6166415;23;20455;-90
2022/08/27 06:40:41;;;;;;;1.30;0.70;;;16.50;99.90;;;;;;6166224;23;20023;-90
2022/08/27 06:43:08;;;;;;;0.80;0.60;;;16.50;99.90;;;;;;6164669;23;20016;-89
2022/08/27 06:45:38;;;;;;;0.77;0.57;;;16.60;99.90;;;;;;6162398;23;20050;-89
2022/08/27 06:48:05;;;;;;;0.60;0.50;;;16.70;99.90;;;;;;6163513;23;20447;-88
2022/08/27 06:50:39;;;;;;;0.57;0.57;;;16.70;99.90;;;;;;6163268;23;20020;-90
2022/08/27 06:53:07;;;;;;;0.63;0.38;;;16.80;99.90;;;;;;6162920;23;20020;-89
2022/08/27 06:55:42;;;;;;;0.60;0.57;;;16.80;99.90;;;;;;6162848;23;20020;-90
2022/08/27 06:58:09;;;;;;;0.80;0.60;;;16.90;99.90;;;;;;6162832;23;20020;-90
2022/08/27 07:00:37;;;;;;;0.88;0.50;;;17.10;99.90;;;;;;6163258;23;20024;-89
2022/08/27 07:03:05;;;;;;;0.77;0.60;;;17.10;99.90;;;;;;6164489;23;20046;-90
2022/08/27 07:05:42;;;;;;;0.68;0.50;;;17.30;99.90;;;;;;6191469;23;20020;-91
2022/08/27 07:08:09;;;;;;;0.77;0.50;;;17.40;99.90;;;;;;6165306;23;20023;-90
2022/08/27 07:10:37;;;;;;;0.93;0.63;;;17.40;99.90;;;;;;6164088;23;20027;-91
2022/08/27 07:13:05;;;;;;;0.47;0.47;;;17.50;99.90;;;;;;6162250;23;20023;-90
2022/08/27 07:15:32;;;;;;;0.65;0.65;;;17.70;99.90;;;;;;6163178;23;20343;-90
2022/08/27 07:18:01;;;;;;;1.33;0.80;;;17.80;99.90;;;;;;6161450;23;20042;-88
2022/08/27 07:20:30;;;;;;;0.40;0.40;;;18.00;99.90;;;;;;6183676;23;20082;-87
2022/08/27 07:22:58;;;;;;;1.00;0.77;;;18.00;99.90;;;;;;6158439;23;20016;-86
2022/08/27 07:25:25;;;;;;;1.10;0.60;;;18.10;99.90;;;;;;6160529;23;20046;-91
2022/08/27 07:27:52;;;;;;;1.20;0.80;;;18.20;99.90;;;;;;6161669;23;20093;-91
2022/08/27 07:30:19;;;;;;;1.27;0.90;;;18.20;99.90;;;;;;6172019;23;20016;-89
2022/08/27 07:32:47;;;;;;;1.02;0.70;;;18.20;99.90;;;;;;6169204;23;20020;-91
2022/08/27 07:35:14;;;;;;;1.23;0.68;;;18.20;99.90;;;;;;6164889;23;20019;-90
2022/08/27 07:37:42;;;;;;;0.63;0.60;;;18.20;99.90;;;;;;6163741;23;20024;-88
2022/08/27 07:40:11;;;;;;;1.20;0.70;;;18.30;99.90;;;;;;6164705;23;20020;-90
2022/08/27 07:45:30;;;;;;;0.70;0.60;;;18.40;99.90;;;;;;6195620;23;20028;-88
2022/08/27 07:47:57;;;;;;;0.60;0.50;;;18.20;99.90;;;;;;6164556;23;20020;-89
2022/08/27 07:50:24;;;;;;;1.05;0.80;;;18.30;99.90;;;;;;6164349;23;20529;-90
2022/08/27 07:52:51;;;;;;;0.80;0.55;;;18.20;99.90;;;;;;6163115;23;20020;-90
2022/08/27 07:55:19;;;;;;;0.55;0.55;;;18.20;99.90;;;;;;6164727;23;20023;-88
2022/08/27 07:57:47;;;;;;;0.85;0.65;;;18.20;99.90;;;;;;6165658;23;20328;-89
2022/08/27 08:00:14;;;;;;;0.85;0.70;;;18.20;99.90;;;;;;6165849;23;20028;-90
2022/08/27 08:02:43;;;;;;;0.90;0.60;;;18.20;99.90;;;;;;6163532;23;20012;-90
2022/08/27 08:05:11;;;;;;;1.00;0.70;;;18.20;99.90;;;;;;6165369;23;20042;-87
2022/08/27 08:07:38;;;;;;;2.33;1.13;;;18.30;99.90;;;;;;6163392;23;20070;-89
2022/08/27 08:10:06;;;;;;;0.98;0.60;;;18.30;99.90;;;;;;6164008;23;20376;-90
2022/08/27 08:12:39;;;;;;;1.05;0.65;;;18.40;99.90;;;;;;6162399;23;20024;-90
2022/08/27 08:15:09;;;;;;;0.77;0.63;;;18.40;99.90;;;;;;6163659;23;20016;-90
2022/08/27 08:17:36;;;;;;;2.30;0.77;;;18.40;99.90;;;;;;6162983;23;20255;-90
2022/08/27 08:20:05;;;;;;;0.80;0.50;;;18.50;99.90;;;;;;6162486;23;20026;-89
2022/08/27 08:22:52;;;;;;;1.58;0.88;;;18.50;99.90;;;;;;6175774;23;20541;-89
2022/08/27 08:25:19;;;;;;;0.60;0.60;;;18.60;99.90;;;;;;6164162;23;20066;-90
2022/08/27 08:27:47;;;;;;;0.73;0.73;;;18.60;99.90;;;;;;6163583;23;20095;-87
2022/08/27 08:30:14;;;;;;;1.00;0.68;;;18.60;99.90;;;;;;6164099;23;20031;-90
2022/08/27 08:32:42;;;;;;;1.08;0.80;;;18.70;99.90;;;;;;6162661;23;20154;-88
2022/08/27 08:35:09;;;;;;;0.73;0.57;;;18.80;99.90;;;;;;6163445;23;20050;-89
2022/08/27 08:37:36;;;;;;;0.93;0.70;;;18.80;99.90;;;;;;6163073;23;20074;-89
2022/08/27 08:40:04;;;;;;;1.08;0.68;;;18.90;99.90;;;;;;6169398;23;20027;-89
2022/08/27 08:42:34;;;;;;;1.00;0.60;;;19.00;99.90;;;;;;6170766;23;20020;-89
2022/08/27 08:45:03;;;;;;;1.20;0.70;;;19.10;99.90;;;;;;6189948;23;20024;-90
2022/08/27 08:47:38;;;;;;;0.75;0.47;;;19.20;99.90;;;;;;6164764;23;20024;-92
2022/08/27 08:50:25;;;;;;;1.10;0.60;;;19.20;99.90;;;;;;6197021;23;20024;-91
2022/08/27 08:53:09;;;;;;;0.98;0.60;;;19.30;99.90;;;;;;6169943;23;20042;-90
2022/08/27 08:55:48;;;;;;;0.88;0.77;;;19.40;99.90;;;;;;6167131;23;20039;-91
2022/08/27 08:58:45;;;;;;;0.73;0.50;;;19.50;99.90;;;;;;6213969;23;20020;-90
2022/08/27 09:01:14;;;;;;;1.05;0.75;;;19.60;99.90;;;;;;6188747;23;20024;-90
2022/08/27 09:03:43;;;;;;;1.02;0.60;;;19.80;99.90;;;;;;6163477;23;20029;-88
2022/08/27 09:06:17;;;;;;;0.63;0.50;;;19.80;99.90;;;;;;6166295;23;20024;-91
2022/08/27 09:08:45;;;;;;;0.50;0.50;;;19.90;99.90;;;;;;6164355;23;20027;-90
2022/08/27 09:11:33;;;;;;;0.98;0.60;;;19.90;99.90;;;;;;6166882;23;20027;-90
2022/08/27 09:14:25;;;;;;;0.63;0.55;;;20.10;99.90;;;;;;6189737;23;20016;-92
2022/08/27 09:16:53;;;;;;;1.17;0.55;;;20.20;99.90;;;;;;6170614;23;20335;-91
2022/08/27 09:19:23;;;;;;;0.98;0.43;;;20.30;99.90;;;;;;6165321;23;20023;-91
2022/08/27 09:21:53;;;;;;;0.52;0.40;;;20.40;99.90;;;;;;6163693;23;20076;-91
2022/08/27 09:24:33;;;;;;;0.60;0.47;;;20.50;99.90;;;;;;6188733;23;20020;-90
2022/08/27 09:27:00;;;;;;;0.70;0.40;;;20.60;99.90;;;;;;6189120;23;20099;-88
2022/08/27 09:29:28;;;;;;;0.85;0.50;;;20.60;99.90;;;;;;6165014;23;20036;-88
2022/08/27 09:32:02;;;;;;;0.85;0.45;;;20.70;99.90;;;;;;6163478;23;20024;-95
2022/08/27 09:34:40;;;;;;;0.65;0.30;;;20.80;99.90;;;;;;6164694;23;20020;-91
2022/08/27 09:37:19;;;;;;;1.35;0.82;;;20.90;99.90;;;;;;6165646;23;20498;-91
2022/08/27 09:39:50;;;;;;;1.08;0.60;;;20.90;99.90;;;;;;6190111;23;20056;-89
2022/08/27 09:42:45;;;;;;;2.28;0.80;;;21.00;99.90;;;;;;6188121;23;20024;-92
2022/08/27 09:45:21;;;;;;;1.00;0.60;;;21.00;99.90;;;;;;6171103;23;20027;-90
2022/08/27 09:48:00;;;;;;;0.80;0.50;;;21.10;99.90;;;;;;6166251;23;20016;-92
2022/08/27 09:50:34;;;;;;;1.48;0.70;;;21.20;99.90;;;;;;6174045;23;20035;-91
2022/08/27 09:53:03;;;;;;;1.95;0.70;;;21.30;99.90;;;;;;6174099;23;20024;-91
2022/08/27 09:55:33;;;;;;;1.23;0.70;;;21.40;99.90;;;;;;6167193;23;20016;-91
2022/08/27 09:58:03;;;;;;;1.08;0.65;;;21.40;99.90;;;;;;6214591;23;20058;-91
2022/08/27 10:00:37;;;;;;;0.95;0.82;;;21.50;99.90;;;;;;6165242;23;20043;-92
2022/08/27 10:03:08;;;;;;;0.85;0.50;;;21.50;99.90;;;;;;6165684;23;20030;-89
2022/08/27 10:05:52;;;;;;;0.60;0.60;;;21.50;99.90;;;;;;6167322;23;20343;-91
2022/08/27 10:08:33;;;;;;;0.95;0.60;;;21.60;99.90;;;;;;6166483;23;20048;-91
2022/08/27 10:11:10;;;;;;;1.23;0.57;;;21.70;99.90;;;;;;6192046;23;20036;-92
2022/08/27 10:14:11;;;;;;;1.48;0.50;;;21.80;99.90;;;;;;6167485;23;20050;-91
2022/08/27 10:17:00;;;;;;;0.50;0.50;;;21.80;99.90;;;;;;6171181;23;20022;-91
2022/08/27 10:19:42;;;;;;;1.45;0.75;;;21.80;99.90;;;;;;6215160;23;20020;-92
2022/08/27 10:22:30;;;;;;;1.42;0.65;;;21.90;99.90;;;;;;6192019;23;20024;-95
2022/08/27 10:25:22;;;;;;;0.80;0.52;;;22.10;99.90;;;;;;6189708;23;20016;-89
2022/08/27 10:27:59;;;;;;;0.82;0.50;;;22.20;99.90;;;;;;6212359;23;20043;-89
2022/08/27 10:31:07;;;;;;;1.00;0.60;;;22.40;99.90;;;;;;6165002;23;20026;-90
2022/08/27 10:33:38;;;;;;;0.73;0.65;;;22.50;99.90;;;;;;6211988;23;20020;-90
2022/08/27 10:36:22;;;;;;;0.80;0.50;;;22.80;99.90;;;;;;6161876;23;20024;-90
2022/08/27 10:39:00;;;;;;;0.95;0.55;;;23.10;99.90;;;;;;6187712;23;20024;-90
2022/08/27 10:41:34;;;;;;;1.00;0.60;;;23.30;99.90;;;;;;6161352;23;20651;-92
2022/08/27 10:44:07;;;;;;;0.65;0.40;;;23.50;99.90;;;;;;6164277;23;20086;-92
2022/08/27 10:46:55;;;;;;;0.57;0.50;;;23.50;99.90;;;;;;6213193;23;20485;-91
2022/08/27 10:49:38;;;;;;;0.30;0.30;;;23.50;99.90;;;;;;6188099;23;20091;-90
2022/08/27 10:52:12;;;;;;;1.42;0.77;;;23.60;99.90;;;;;;6167303;23;20504;-90
2022/08/27 10:55:04;;;;;;;1.45;0.60;;;23.50;99.90;;;;;;6192469;23;20309;-92
2022/08/27 10:57:54;;;;;;;0.85;0.52;;;23.50;99.90;;;;;;6216045;23;20328;-92
2022/08/27 11:00:54;;;;;;;0.60;0.60;;;23.50;99.90;;;;;;6219442;23;20063;-92
2022/08/27 11:03:51;;;;;;;0.77;0.65;;;23.60;99.90;;;;;;6201864;23;20076;-91
2022/08/27 11:06:37;;;;;;;0.65;0.40;;;23.80;99.90;;;;;;6195293;23;20044;-91
2022/08/27 11:09:09;;;;;;;0.43;0.40;;;24.10;99.90;;;;;;6170821;23;20090;-91
2022/08/27 11:11:48;;;;;;;0.57;0.35;;;24.10;99.90;;;;;;6168380;23;20016;-90
2022/08/27 11:14:49;;;;;;;0.85;0.50;;;24.10;99.90;;;;;;6179713;23;20481;-91
2022/08/27 11:17:54;;;;;;;;;;;;;;;;;;;;;
2022/08/27 11:21:03;;;;;;;0.30;0.30;;;23.70;99.90;;;;;;6135539;23;20021;-92
2022/08/27 11:23:43;;;;;;;0.57;0.43;;;23.70;99.90;;;;;;6111140;23;20436;-91
2022/08/27 11:26:11;;;;;;;0.88;0.50;;;23.80;99.90;;;;;;6097359;23;20025;-91
2022/08/27 11:28:40;;;;;;;0.57;0.40;;;24.00;99.90;;;;;;6095944;23;20021;-90
2022/08/27 11:31:19;;;;;;;0.35;0.30;;;24.40;99.90;;;;;;6096104;23;20021;-90
2022/08/27 11:34:11;;;;;;;0.50;0.35;;;24.80;99.90;;;;;;6122248;23;20100;-91
2022/08/27 11:37:03;;;;;;;0.30;0.30;;;25.00;99.90;;;;;;6102009;23;20017;-90
2022/08/27 11:40:07;;;;;;;0.77;0.40;;;25.80;99.90;;;;;;6101686;23;20526;-92
2022/08/27 11:42:47;;;;;;;0.85;0.45;;;26.20;99.90;;;;;;6122284;23;20017;-92
2022/08/27 11:45:20;;;;;;;0.40;0.40;;;26.50;99.90;;;;;;6099827;23;20032;-91
2022/08/27 11:47:57;;;;;;;0.45;0.45;;;26.80;99.90;;;;;;6100250;23;20024;-91
2022/08/27 11:50:25;;;;;;;0.95;0.70;;;27.00;99.70;;;;;;6120874;23;20451;-91
2022/08/27 11:52:59;;;;;;;0.75;0.40;;;27.00;99.80;;;;;;6164300;23;20024;-91
2022/08/27 11:55:37;;;;;;;0.40;0.40;;;26.90;99.80;;;;;;6189467;23;20016;-92
2022/08/27 11:58:20;;;;;;;0.50;0.43;;;26.70;99.60;;;;;;6166840;23;20024;-92
2022/08/27 12:00:47;;;;;;;1.00;0.70;;;26.40;99.10;;;;;;6191070;23;20020;-91
2022/08/27 12:03:20;;;;;;;0.60;0.60;;;26.50;99.10;;;;;;6164462;23;20022;-92
2022/08/27 12:06:03;;;;;;;0.50;0.50;;;27.00;99.10;;;;;;6212673;23;20035;-93
2022/08/27 12:08:33;;;;;;;0.68;0.50;;;27.50;98.20;;;;;;6168478;23;20420;-93
2022/08/27 12:11:31;;;;;;;1.33;0.70;;;28.00;98.20;;;;;;6180079;23;20392;-92
2022/08/27 12:14:16;;;;;;;0.30;0.30;;;28.40;97.00;;;;;;6189852;23;20043;-94
2022/08/27 12:16:51;;;;;;;1.08;0.60;;;28.90;96.50;;;;;;6211745;23;20039;-93
2022/08/27 12:19:18;;;;;;;1.15;0.80;;;28.80;95.60;;;;;;6165935;23;20115;-93
2022/08/27 12:22:03;;;;;;;0.63;0.50;;;28.90;95.50;;;;;;6214594;23;20039;-91
2022/08/27 12:24:55;;;;;;;0.40;0.40;;;29.00;95.10;;;;;;6190974;23;20076;-93
2022/08/27 12:27:31;;;;;;;0.47;0.40;;;29.50;94.80;;;;;;6167347;23;20490;-94
2022/08/27 12:30:20;;;;;;;0.50;0.50;;;30.00;94.00;;;;;;6214432;23;20444;-92
2022/08/27 12:32:50;;;;;;;0.50;0.50;;;30.10;93.50;;;;;;6164898;23;20022;-90
2022/08/27 12:35:39;;;;;;;0.47;0.47;;;30.40;92.10;;;;;;6162728;23;20024;-92
2022/08/27 12:38:19;;;;;;;0.82;0.40;;;30.80;91.40;;;;;;6182075;23;20045;-91
2022/08/27 12:40:51;;;;;;;0.88;0.52;;;31.10;91.40;;;;;;6180799;23;20533;-91
2022/08/27 12:43:26;;;;;;;0.60;0.40;;;30.50;90.50;;;;;;6159136;23;20115;-94
2022/08/27 12:45:59;;;;;;;0.32;0.32;;;29.60;90.40;;;;;;6162154;23;20104;-91
2022/08/27 12:48:28;;;;;;;0.60;0.40;;;29.00;90.90;;;;;;6157469;23;20075;-92
2022/08/27 12:50:57;;;;;;;0.40;0.40;;;28.30;91.40;;;;;;6159040;23;20487;-91
2022/08/27 12:53:43;;;;;;;0.30;0.30;;;27.70;91.50;;;;;;6156260;23;20021;-91
2022/08/27 12:56:34;;;;;;;0.57;0.50;;;27.20;92.10;;;;;;6178920;23;20020;-92
2022/08/27 12:59:19;;;;;;;0.20;0.20;;;27.00;91.80;;;;;;6156711;23;20025;-91
2022/08/27 13:02:01;;;;;;;0.68;0.32;;;26.80;91.50;;;;;;6203940;23;20079;-91
2022/08/27 13:04:29;;;;;;;0.98;0.50;;;27.30;91.90;;;;;;6204026;23;20050;-91
2022/08/27 13:06:57;;;;;;;0.50;0.50;;;27.20;91.80;;;;;;6152974;23;20487;-92
2022/08/27 13:09:28;;;;;;;0.57;0.45;;;27.80;92.00;;;;;;6155026;23;20447;-92
2022/08/27 13:11:56;;;;;;;0.40;0.40;;;28.40;91.10;;;;;;6155275;23;20072;-93
2022/08/27 13:14:25;;;;;;;0.60;0.47;;;29.20;91.30;;;;;;6154344;23;20907;-93
2022/08/27 13:16:59;;;;;;;0.45;0.45;;;30.00;90.50;;;;;;6156427;23;20032;-92
2022/08/27 13:19:27;;;;;;;0.60;0.60;;;30.70;90.10;;;;;;6161670;23;20464;-91
2022/08/27 13:21:55;;;;;;;0.60;0.40;;;30.90;88.00;;;;;;6185619;23;20047;-92
2022/08/27 13:24:34;;;;;;;0.70;0.50;;;30.70;86.80;;;;;;6155460;23;20016;-90